sensor_id;sensor_type;location;lat;lon;timestamp;pressure;altitude;pressure_sealevel;temperature;humidity
64292;BME280;50628;51.008;13.658;2023-04-01T00:03:44;97918.19;;;9.74;100.00
64292;BME280;50628;51.008;13.658;2023-04-01T00:08:47;97913.47;;;9.69;100.00
64292;BME280;50628;51.008;13.658;2023-04-01T00:13:49;97907.63;;;9.67;100.00
64292;BME280;50628;51.008;13.658;2023-04-01T00:18:51;97908.13;;;9.71;100.00
64292;BME280;50628;51.008;13.658;2023-04-01T00:23:54;97905.84;;;9.68;100.00
64292;BME280;50628;51.008;13.658;2023-04-01T00:28:56;97913.47;;;9.78;100.00
64292;BME280;50628;51.008;13.658;2023-04-01T00:34:00;97917.88;;;9.61;100.00
64292;BME280;50628;51.008;13.658;2023-04-01T00:39:03;97911.69;;;9.53;100.00
64292;BME280;50628;51.008;13.658;2023-04-01T00:44:15;97917.84;;;9.44;100.00
64292;BME280;50628;51.008;13.658;2023-04-01T00:49:20;97915.75;;;9.56;100.00
64292;BME280;50628;51.008;13.658;2023-04-01T00:54:27;97907.13;;;9.47;100.00
64292;BME280;50628;51.008;13.658;2023-04-01T00:59:33;97914.44;;;9.44;100.00
64292;BME280;50628;51.008;13.658;2023-04-01T01:04:36;97906.50;;;9.53;100.00
64292;BME280;50628;51.008;13.658;2023-04-01T01:09:45;97918.66;;;9.45;100.00
64292;BME280;50628;51.008;13.658;2023-04-01T01:14:53;97914.28;;;9.53;100.00
64292;BME280;50628;51.008;13.658;2023-04-01T01:20:11;97912.66;;;9.44;100.00
64292;BME280;50628;51.008;13.658;2023-04-01T01:25:28;97909.41;;;9.42;100.00
64292;BME280;50628;51.008;13.658;2023-04-01T01:30:39;97908.09;;;9.46;100.00
64292;BME280;50628;51.008;13.658;2023-04-01T01:35:48;97904.19;;;9.34;100.00
64292;BME280;50628;51.008;13.658;2023-04-01T01:40:55;97900.16;;;9.40;100.00
64292;BME280;50628;51.008;13.658;2023-04-01T01:46:01;97905.38;;;9.48;100.00
64292;BME280;50628;51.008;13.658;2023-04-01T01:51:06;97903.25;;;9.43;100.00
64292;BME280;50628;51.008;13.658;2023-04-01T01:56:10;97900.31;;;9.54;100.00
64292;BME280;50628;51.008;13.658;2023-04-01T02:01:16;97911.03;;;9.51;100.00
64292;BME280;50628;51.008;13.658;2023-04-01T02:06:23;97907.44;;;9.44;100.00
64292;BME280;50628;51.008;13.658;2023-04-01T02:11:29;97899.19;;;9.41;100.00
64292;BME280;50628;51.008;13.658;2023-04-01T02:16:34;97905.69;;;9.53;100.00
64292;BME280;50628;51.008;13.658;2023-04-01T02:21:39;97915.09;;;9.54;100.00
64292;BME280;50628;51.008;13.658;2023-04-01T02:26:44;97909.25;;;9.52;100.00
64292;BME280;50628;51.008;13.658;2023-04-01T02:31:47;97908.63;;;9.50;100.00
64292;BME280;50628;51.008;13.658;2023-04-01T02:36:51;97909.25;;;9.68;100.00
64292;BME280;50628;51.008;13.658;2023-04-01T02:41:53;97917.34;;;9.57;100.00
64292;BME280;50628;51.008;13.658;2023-04-01T02:46:55;97918.34;;;9.48;100.00
64292;BME280;50628;51.008;13.658;2023-04-01T02:51:59;97912.50;;;9.54;100.00
64292;BME280;50628;51.008;13.658;2023-04-01T02:57:01;97920.75;;;9.49;100.00
64292;BME280;50628;51.008;13.658;2023-04-01T03:02:03;97920.63;;;9.51;100.00
64292;BME280;50628;51.008;13.658;2023-04-01T03:07:06;97930.16;;;9.34;100.00
64292;BME280;50628;51.008;13.658;2023-04-01T03:12:09;97927.75;;;9.32;100.00
64292;BME280;50628;51.008;13.658;2023-04-01T03:17:23;97925.31;;;9.47;100.00
64292;BME280;50628;51.008;13.658;2023-04-01T03:22:26;97934.41;;;9.35;100.00
64292;BME280;50628;51.008;13.658;2023-04-01T03:27:28;97926.44;;;9.37;100.00
64292;BME280;50628;51.008;13.658;2023-04-01T03:32:30;97926.44;;;9.37;100.00
64292;BME280;50628;51.008;13.658;2023-04-01T03:37:34;97930.63;;;9.29;100.00
64292;BME280;50628;51.008;13.658;2023-04-01T03:42:36;97931.94;;;9.34;100.00
64292;BME280;50628;51.008;13.658;2023-04-01T03:47:38;97941.19;;;9.28;100.00
64292;BME280;50628;51.008;13.658;2023-04-01T03:52:41;97942.19;;;9.43;100.00
64292;BME280;50628;51.008;13.658;2023-04-01T03:57:43;97940.41;;;9.27;100.00
64292;BME280;50628;51.008;13.658;2023-04-01T04:02:52;97944.94;;;9.34;100.00
64292;BME280;50628;51.008;13.658;2023-04-01T04:08:02;97946.59;;;9.51;100.00
64292;BME280;50628;51.008;13.658;2023-04-01T04:13:05;97955.19;;;9.51;100.00
64292;BME280;50628;51.008;13.658;2023-04-01T04:18:11;97955.50;;;9.48;100.00
64292;BME280;50628;51.008;13.658;2023-04-01T04:23:15;97961.03;;;9.53;100.00
64292;BME280;50628;51.008;13.658;2023-04-01T04:28:17;97958.75;;;9.50;100.00
64292;BME280;50628;51.008;13.658;2023-04-01T04:33:20;97962.97;;;9.51;100.00
64292;BME280;50628;51.008;13.658;2023-04-01T04:38:24;97968.50;;;9.48;100.00
64292;BME280;50628;51.008;13.658;2023-04-01T04:43:26;97975.28;;;9.41;100.00
64292;BME280;50628;51.008;13.658;2023-04-01T04:48:30;97982.28;;;9.49;100.00
64292;BME280;50628;51.008;13.658;2023-04-01T04:53:34;97985.34;;;9.44;100.00
64292;BME280;50628;51.008;13.658;2023-04-01T04:58:36;97976.25;;;9.32;100.00
64292;BME280;50628;51.008;13.658;2023-04-01T05:03:39;97979.34;;;9.44;100.00
64292;BME280;50628;51.008;13.658;2023-04-01T05:08:43;97996.25;;;9.48;100.00
64292;BME280;50628;51.008;13.658;2023-04-01T05:13:45;98003.19;;;9.39;100.00
64292;BME280;50628;51.008;13.658;2023-04-01T05:18:48;98005.81;;;9.47;100.00
64292;BME280;50628;51.008;13.658;2023-04-01T05:23:52;98005.66;;;9.49;100.00
64292;BME280;50628;51.008;13.658;2023-04-01T05:28:54;98002.91;;;9.50;100.00
64292;BME280;50628;51.008;13.658;2023-04-01T05:33:56;98007.16;;;9.68;100.00
64292;BME280;50628;51.008;13.658;2023-04-01T05:38:59;98012.84;;;9.55;100.00
64292;BME280;50628;51.008;13.658;2023-04-01T05:44:02;98012.50;;;9.50;100.00
64292;BME280;50628;51.008;13.658;2023-04-01T05:49:24;98018.97;;;9.54;100.00
64292;BME280;50628;51.008;13.658;2023-04-01T05:54:27;98016.88;;;9.58;100.00
64292;BME280;50628;51.008;13.658;2023-04-01T05:59:30;98021.09;;;9.59;100.00
64292;BME280;50628;51.008;13.658;2023-04-01T06:04:35;98020.78;;;9.62;100.00
64292;BME280;50628;51.008;13.658;2023-04-01T06:09:40;98019.66;;;9.72;100.00
64292;BME280;50628;51.008;13.658;2023-04-01T06:14:49;98017.75;;;9.83;100.00
64292;BME280;50628;51.008;13.658;2023-04-01T06:20:03;98027.16;;;9.92;100.00
64292;BME280;50628;51.008;13.658;2023-04-01T06:25:28;98025.38;;;10.09;100.00
64292;BME280;50628;51.008;13.658;2023-04-01T06:30:40;98038.22;;;10.18;100.00
64292;BME280;50628;51.008;13.658;2023-04-01T06:36:00;98024.75;;;10.31;100.00
64292;BME280;50628;51.008;13.658;2023-04-01T06:46:38;98042.78;;;10.33;100.00
64292;BME280;50628;51.008;13.658;2023-04-01T06:52:12;98036.59;;;10.42;100.00
64292;BME280;50628;51.008;13.658;2023-04-01T06:57:41;98048.28;;;10.54;100.00
64292;BME280;50628;51.008;13.658;2023-04-01T07:02:48;98042.59;;;10.59;100.00
64292;BME280;50628;51.008;13.658;2023-04-01T07:07:57;98054.28;;;10.71;100.00
64292;BME280;50628;51.008;13.658;2023-04-01T07:13:05;98050.88;;;10.63;100.00
64292;BME280;50628;51.008;13.658;2023-04-01T07:18:40;98066.31;;;10.64;100.00
64292;BME280;50628;51.008;13.658;2023-04-01T07:23:46;98062.25;;;10.61;100.00
64292;BME280;50628;51.008;13.658;2023-04-01T07:29:05;98073.13;;;10.73;100.00
64292;BME280;50628;51.008;13.658;2023-04-01T07:34:28;98073.31;;;10.64;100.00
64292;BME280;50628;51.008;13.658;2023-04-01T07:39:39;98069.06;;;10.71;100.00
64292;BME280;50628;51.008;13.658;2023-04-01T07:44:59;98082.91;;;10.63;100.00
64292;BME280;50628;51.008;13.658;2023-04-01T07:50:13;98072.50;;;10.71;100.00
64292;BME280;50628;51.008;13.658;2023-04-01T07:55:23;98083.84;;;10.78;100.00
64292;BME280;50628;51.008;13.658;2023-04-01T08:00:31;98094.59;;;10.83;100.00
64292;BME280;50628;51.008;13.658;2023-04-01T08:05:52;98084.28;;;11.07;100.00
64292;BME280;50628;51.008;13.658;2023-04-01T08:10:59;98087.63;;;11.23;100.00
64292;BME280;50628;51.008;13.658;2023-04-01T08:16:30;98104.19;;;11.39;100.00
64292;BME280;50628;51.008;13.658;2023-04-01T08:21:42;98093.66;;;11.63;100.00
64292;BME280;50628;51.008;13.658;2023-04-01T08:26:48;98096.94;;;11.18;100.00
64292;BME280;50628;51.008;13.658;2023-04-01T08:31:58;98100.53;;;11.09;100.00
64292;BME280;50628;51.008;13.658;2023-04-01T08:37:04;98109.69;;;11.04;100.00
64292;BME280;50628;51.008;13.658;2023-04-01T08:42:26;98103.69;;;11.43;100.00
64292;BME280;50628;51.008;13.658;2023-04-01T08:47:52;98118.72;;;11.25;100.00
64292;BME280;50628;51.008;13.658;2023-04-01T08:53:00;98107.66;;;11.23;100.00
64292;BME280;50628;51.008;13.658;2023-04-01T08:58:25;98106.34;;;11.27;100.00
64292;BME280;50628;51.008;13.658;2023-04-01T09:10:05;98104.59;;;11.59;100.00
64292;BME280;50628;51.008;13.658;2023-04-01T09:15:45;98110.19;;;11.47;100.00
64292;BME280;50628;51.008;13.658;2023-04-01T09:21:15;98116.25;;;11.71;100.00
64292;BME280;50628;51.008;13.658;2023-04-01T09:26:34;98104.03;;;11.72;100.00
64292;BME280;50628;51.008;13.658;2023-04-01T09:31:56;98101.56;;;11.78;100.00
64292;BME280;50628;51.008;13.658;2023-04-01T09:37:30;98118.13;;;11.94;100.00
64292;BME280;50628;51.008;13.658;2023-04-01T09:42:49;98109.16;;;12.19;100.00
64292;BME280;50628;51.008;13.658;2023-04-01T09:48:09;98124.78;;;12.27;100.00
64292;BME280;50628;51.008;13.658;2023-04-01T09:53:33;98130.84;;;12.20;100.00
64292;BME280;50628;51.008;13.658;2023-04-01T10:05:27;98125.94;;;12.25;100.00
64292;BME280;50628;51.008;13.658;2023-04-01T10:11:22;98129.28;;;12.33;100.00
64292;BME280;50628;51.008;13.658;2023-04-01T10:17:06;98124.28;;;12.01;100.00
64292;BME280;50628;51.008;13.658;2023-04-01T10:22:51;98138.19;;;12.16;100.00
64292;BME280;50628;51.008;13.658;2023-04-01T10:34:02;98143.00;;;12.04;100.00
64292;BME280;50628;51.008;13.658;2023-04-01T10:45:54;98133.41;;;12.28;100.00
64292;BME280;50628;51.008;13.658;2023-04-01T10:51:10;98139.44;;;12.28;100.00
64292;BME280;50628;51.008;13.658;2023-04-01T10:56:34;98138.09;;;12.55;100.00
64292;BME280;50628;51.008;13.658;2023-04-01T11:14:04;98128.34;;;12.26;100.00
64292;BME280;50628;51.008;13.658;2023-04-01T11:19:45;98132.91;;;12.70;100.00
64292;BME280;50628;51.008;13.658;2023-04-01T11:25:11;98135.53;;;12.70;100.00
64292;BME280;50628;51.008;13.658;2023-04-01T11:31:00;98151.09;;;12.41;100.00
64292;BME280;50628;51.008;13.658;2023-04-01T11:36:20;98154.97;;;11.90;100.00
64292;BME280;50628;51.008;13.658;2023-04-01T11:41:34;98144.72;;;11.81;100.00
64292;BME280;50628;51.008;13.658;2023-04-01T11:47:30;98139.06;;;12.08;100.00
64292;BME280;50628;51.008;13.658;2023-04-01T11:52:55;98133.56;;;12.49;100.00
64292;BME280;50628;51.008;13.658;2023-04-01T11:58:19;98128.13;;;13.27;100.00
64292;BME280;50628;51.008;13.658;2023-04-01T12:03:46;98125.19;;;12.92;100.00
64292;BME280;50628;51.008;13.658;2023-04-01T12:08:55;98126.66;;;12.33;100.00
64292;BME280;50628;51.008;13.658;2023-04-01T12:14:08;98134.34;;;12.73;100.00
64292;BME280;50628;51.008;13.658;2023-04-01T12:19:18;98136.03;;;11.97;100.00
64292;BME280;50628;51.008;13.658;2023-04-01T12:24:49;98135.34;;;12.49;100.00
64292;BME280;50628;51.008;13.658;2023-04-01T12:30:20;98131.19;;;12.63;100.00
64292;BME280;50628;51.008;13.658;2023-04-01T12:35:45;98133.31;;;12.97;100.00
64292;BME280;50628;51.008;13.658;2023-04-01T12:41:05;98145.19;;;12.99;100.00
64292;BME280;50628;51.008;13.658;2023-04-01T12:46:15;98148.09;;;13.19;100.00
64292;BME280;50628;51.008;13.658;2023-04-01T12:51:46;98141.72;;;13.67;100.00
64292;BME280;50628;51.008;13.658;2023-04-01T12:57:02;98139.34;;;13.87;96.52
64292;BME280;50628;51.008;13.658;2023-04-01T13:02:13;98158.47;;;13.72;94.72
64292;BME280;50628;51.008;13.658;2023-04-01T13:07:30;98158.47;;;13.72;92.78
64292;BME280;50628;51.008;13.658;2023-04-01T13:12:42;98153.31;;;13.94;93.66
64292;BME280;50628;51.008;13.658;2023-04-01T13:17:52;98168.47;;;13.83;99.04
64292;BME280;50628;51.008;13.658;2023-04-01T13:23:06;98165.53;;;13.42;92.65
64292;BME280;50628;51.008;13.658;2023-04-01T13:28:16;98158.72;;;13.77;91.82
64292;BME280;50628;51.008;13.658;2023-04-01T13:33:26;98156.91;;;13.93;92.74
64292;BME280;50628;51.008;13.658;2023-04-01T13:38:56;98170.53;;;13.88;83.79
64292;BME280;50628;51.008;13.658;2023-04-01T13:44:09;98161.59;;;13.97;85.75
64292;BME280;50628;51.008;13.658;2023-04-01T13:49:48;98161.63;;;13.38;98.15
64292;BME280;50628;51.008;13.658;2023-04-01T13:55:19;98156.97;;;13.48;95.33
64292;BME280;50628;51.008;13.658;2023-04-01T14:00:46;98166.78;;;13.46;93.30
64292;BME280;50628;51.008;13.658;2023-04-01T14:05:59;98173.59;;;14.28;85.23
64292;BME280;50628;51.008;13.658;2023-04-01T14:11:13;98174.19;;;14.09;88.57
64292;BME280;50628;51.008;13.658;2023-04-01T14:21:52;98175.28;;;14.36;90.80
64292;BME280;50628;51.008;13.658;2023-04-01T14:32:29;98182.88;;;14.31;93.03
64292;BME280;50628;51.008;13.658;2023-04-01T14:37:55;98194.94;;;14.10;99.06
64292;BME280;50628;51.008;13.658;2023-04-01T14:48:57;98214.38;;;13.04;100.00
64292;BME280;50628;51.008;13.658;2023-04-01T14:54:03;98217.97;;;13.03;100.00
64292;BME280;50628;51.008;13.658;2023-04-01T14:59:14;98217.06;;;12.72;100.00
64292;BME280;50628;51.008;13.658;2023-04-01T15:04:37;98221.38;;;12.65;100.00
64292;BME280;50628;51.008;13.658;2023-04-01T15:09:49;98232.09;;;12.47;100.00
64292;BME280;50628;51.008;13.658;2023-04-01T15:15:14;98227.03;;;12.46;100.00
64292;BME280;50628;51.008;13.658;2023-04-01T15:20:45;98223.41;;;12.55;100.00
64292;BME280;50628;51.008;13.658;2023-04-01T15:26:04;98236.09;;;12.58;100.00
64292;BME280;50628;51.008;13.658;2023-04-01T15:31:13;98230.94;;;12.50;100.00
64292;BME280;50628;51.008;13.658;2023-04-01T15:36:32;98238.56;;;12.28;100.00
64292;BME280;50628;51.008;13.658;2023-04-01T15:41:45;98249.59;;;12.39;100.00
64292;BME280;50628;51.008;13.658;2023-04-01T15:46:50;98242.75;;;12.38;100.00
64292;BME280;50628;51.008;13.658;2023-04-01T15:52:00;98256.38;;;12.17;100.00
64292;BME280;50628;51.008;13.658;2023-04-01T15:57:25;98253.31;;;12.13;100.00
64292;BME280;50628;51.008;13.658;2023-04-01T16:02:32;98257.75;;;11.96;100.00
64292;BME280;50628;51.008;13.658;2023-04-01T16:07:46;98269.00;;;12.05;100.00
64292;BME280;50628;51.008;13.658;2023-04-01T16:13:00;98269.84;;;11.89;100.00
64292;BME280;50628;51.008;13.658;2023-04-01T16:18:14;98268.03;;;11.81;100.00
64292;BME280;50628;51.008;13.658;2023-04-01T16:23:26;98278.97;;;11.77;100.00
64292;BME280;50628;51.008;13.658;2023-04-01T16:28:34;98278.19;;;11.68;100.00
64292;BME280;50628;51.008;13.658;2023-04-01T16:33:45;98292.72;;;11.54;100.00
64292;BME280;50628;51.008;13.658;2023-04-01T16:38:59;98300.22;;;11.49;100.00
64292;BME280;50628;51.008;13.658;2023-04-01T16:44:13;98310.97;;;11.54;100.00
64292;BME280;50628;51.008;13.658;2023-04-01T16:49:36;98318.63;;;11.39;100.00
64292;BME280;50628;51.008;13.658;2023-04-01T16:54:45;98318.94;;;11.36;100.00
64292;BME280;50628;51.008;13.658;2023-04-01T16:59:56;98330.31;;;11.43;100.00
64292;BME280;50628;51.008;13.658;2023-04-01T17:05:03;98332.28;;;11.50;100.00
64292;BME280;50628;51.008;13.658;2023-04-01T17:10:38;98342.06;;;11.47;100.00
64292;BME280;50628;51.008;13.658;2023-04-01T17:15:47;98350.53;;;11.50;100.00
64292;BME280;50628;51.008;13.658;2023-04-01T17:20:56;98359.78;;;11.44;100.00
64292;BME280;50628;51.008;13.658;2023-04-01T17:26:10;98360.47;;;11.30;100.00
64292;BME280;50628;51.008;13.658;2023-04-01T17:31:31;98360.75;;;11.18;100.00
64292;BME280;50628;51.008;13.658;2023-04-01T17:36:43;98369.84;;;10.98;100.00
64292;BME280;50628;51.008;13.658;2023-04-01T17:41:54;98380.56;;;10.87;100.00
64292;BME280;50628;51.008;13.658;2023-04-01T17:47:26;98390.00;;;10.88;100.00
64292;BME280;50628;51.008;13.658;2023-04-01T17:52:33;98401.00;;;10.73;100.00
64292;BME280;50628;51.008;13.658;2023-04-01T17:57:46;98401.66;;;10.67;100.00
64292;BME280;50628;51.008;13.658;2023-04-01T18:03:03;98406.22;;;10.73;100.00
64292;BME280;50628;51.008;13.658;2023-04-01T18:08:17;98410.13;;;10.77;100.00
64292;BME280;50628;51.008;13.658;2023-04-01T18:19:26;98418.41;;;10.73;100.00
64292;BME280;50628;51.008;13.658;2023-04-01T18:24:35;98426.16;;;10.56;100.00
64292;BME280;50628;51.008;13.658;2023-04-01T18:29:47;98433.16;;;10.56;100.00
64292;BME280;50628;51.008;13.658;2023-04-01T18:34:57;98443.69;;;10.46;100.00
64292;BME280;50628;51.008;13.658;2023-04-01T18:40:12;98445.94;;;10.41;100.00
64292;BME280;50628;51.008;13.658;2023-04-01T18:45:20;98451.72;;;10.35;100.00
64292;BME280;50628;51.008;13.658;2023-04-01T18:50:28;98457.16;;;10.42;100.00
64292;BME280;50628;51.008;13.658;2023-04-01T18:55:37;98465.53;;;10.35;100.00
64292;BME280;50628;51.008;13.658;2023-04-01T19:00:47;98468.47;;;10.32;100.00
64292;BME280;50628;51.008;13.658;2023-04-01T19:05:54;98466.66;;;10.33;100.00
64292;BME280;50628;51.008;13.658;2023-04-01T19:11:05;98475.34;;;10.42;100.00
64292;BME280;50628;51.008;13.658;2023-04-01T19:16:20;98480.09;;;10.46;100.00
64292;BME280;50628;51.008;13.658;2023-04-01T19:21:26;98489.06;;;10.52;100.00
64292;BME280;50628;51.008;13.658;2023-04-01T19:26:33;98488.25;;;10.51;100.00
64292;BME280;50628;51.008;13.658;2023-04-01T19:31:49;98493.59;;;10.50;100.00
64292;BME280;50628;51.008;13.658;2023-04-01T19:36:56;98496.63;;;10.37;100.00
64292;BME280;50628;51.008;13.658;2023-04-01T19:42:05;98505.22;;;10.37;100.00
64292;BME280;50628;51.008;13.658;2023-04-01T19:47:14;98509.69;;;10.27;100.00
64292;BME280;50628;51.008;13.658;2023-04-01T19:52:28;98512.44;;;10.26;100.00
64292;BME280;50628;51.008;13.658;2023-04-01T19:57:39;98522.69;;;10.27;100.00
64292;BME280;50628;51.008;13.658;2023-04-01T20:02:53;98533.53;;;10.23;100.00
64292;BME280;50628;51.008;13.658;2023-04-01T20:08:03;98536.75;;;10.34;100.00
64292;BME280;50628;51.008;13.658;2023-04-01T20:13:14;98543.06;;;10.32;100.00
64292;BME280;50628;51.008;13.658;2023-04-01T20:18:23;98554.59;;;10.29;100.00
64292;BME280;50628;51.008;13.658;2023-04-01T20:23:39;98562.69;;;10.08;100.00
64292;BME280;50628;51.008;13.658;2023-04-01T20:28:47;98569.59;;;10.00;100.00
64292;BME280;50628;51.008;13.658;2023-04-01T20:34:08;98577.97;;;9.93;100.00
64292;BME280;50628;51.008;13.658;2023-04-01T20:39:24;98581.84;;;9.89;100.00
64292;BME280;50628;51.008;13.658;2023-04-01T20:44:37;98583.75;;;10.05;100.00
64292;BME280;50628;51.008;13.658;2023-04-01T20:49:41;98593.41;;;9.95;100.00
64292;BME280;50628;51.008;13.658;2023-04-01T20:55:01;98585.91;;;10.10;100.00
64292;BME280;50628;51.008;13.658;2023-04-01T21:00:24;98592.59;;;10.12;100.00
64292;BME280;50628;51.008;13.658;2023-04-01T21:05:45;98604.06;;;10.19;100.00
64292;BME280;50628;51.008;13.658;2023-04-01T21:11:01;98609.13;;;10.21;100.00
64292;BME280;50628;51.008;13.658;2023-04-01T21:16:19;98616.69;;;10.14;100.00
64292;BME280;50628;51.008;13.658;2023-04-01T21:21:36;98625.81;;;10.01;100.00
64292;BME280;50628;51.008;13.658;2023-04-01T21:26:51;98638.06;;;9.90;100.00
64292;BME280;50628;51.008;13.658;2023-04-01T21:37:36;98647.28;;;9.75;100.00
64292;BME280;50628;51.008;13.658;2023-04-01T21:42:48;98646.69;;;9.91;100.00
64292;BME280;50628;51.008;13.658;2023-04-01T21:48:08;98650.00;;;9.83;100.00
64292;BME280;50628;51.008;13.658;2023-04-01T21:53:43;98655.72;;;9.87;100.00
64292;BME280;50628;51.008;13.658;2023-04-01T22:04:47;98661.88;;;9.21;100.00
64292;BME280;50628;51.008;13.658;2023-04-01T22:09:59;98670.28;;;8.95;100.00
64292;BME280;50628;51.008;13.658;2023-04-01T22:15:12;98677.81;;;8.88;100.00
64292;BME280;50628;51.008;13.658;2023-04-01T22:20:25;98675.09;;;8.80;100.00
64292;BME280;50628;51.008;13.658;2023-04-01T22:25:34;98683.69;;;8.81;100.00
64292;BME280;50628;51.008;13.658;2023-04-01T22:30:42;98701.31;;;8.68;100.00
64292;BME280;50628;51.008;13.658;2023-04-01T22:35:50;98706.38;;;8.59;100.00
64292;BME280;50628;51.008;13.658;2023-04-01T22:40:59;98707.06;;;8.52;100.00
64292;BME280;50628;51.008;13.658;2023-04-01T22:51:39;98720.00;;;8.42;100.00
64292;BME280;50628;51.008;13.658;2023-04-01T22:56:48;98730.19;;;8.34;100.00
64292;BME280;50628;51.008;13.658;2023-04-01T23:01:55;98737.47;;;8.40;100.00
64292;BME280;50628;51.008;13.658;2023-04-01T23:07:02;98743.69;;;8.28;100.00
64292;BME280;50628;51.008;13.658;2023-04-01T23:12:07;98760.59;;;8.22;100.00
64292;BME280;50628;51.008;13.658;2023-04-01T23:17:29;98757.75;;;8.25;100.00
64292;BME280;50628;51.008;13.658;2023-04-01T23:22:42;98771.63;;;8.14;100.00
64292;BME280;50628;51.008;13.658;2023-04-01T23:27:51;98780.47;;;8.02;100.00
64292;BME280;50628;51.008;13.658;2023-04-01T23:33:09;98789.84;;;8.03;100.00
64292;BME280;50628;51.008;13.658;2023-04-01T23:38:13;98802.53;;;7.96;100.00
64292;BME280;50628;51.008;13.658;2023-04-01T23:43:22;98810.06;;;7.78;100.00
64292;BME280;50628;51.008;13.658;2023-04-01T23:48:28;98810.84;;;7.69;100.00
64292;BME280;50628;51.008;13.658;2023-04-01T23:53:33;98824.63;;;7.70;100.00
64292;BME280;50628;51.008;13.658;2023-04-01T23:58:42;98833.03;;;7.62;100.00
